CheckWX is a tool to help pilots better visualize weather data.  It is not intended as a substitute for an official pre-flight weather briefing.

14:09:27 UTC

DTTR METAR
El Borma Airport
El Borma, Tunisia
Current

1 hour ago

DTTR 201300Z 08010KT 050V140 CAVOK 38/06 Q1014
Observed
Jul-20 @ 13:00 UTC
Wind
  • 080° at 10 KTS
Visibility
10,000+ meters
Flight Rules
VFR
Cloud Levels
  • Clear skies
Temperature
38°C / 100°F
Dewpoint
C / 43°F
Humidity
14%
Altimeter
29.94" Hg
Pressure
1013.92 hPa
Previous

2 hours ago

DTTR 201200Z 07011KT 040V100 CAVOK 38/07 Q1014
Observed
Jul-20 @ 12:00 UTC
Wind
  • 070° at 11 KTS
Visibility
10,000+ meters
Flight Rules
VFR
Cloud Levels
  • Clear skies
Temperature
38°C / 100°F
Dewpoint
C / 45°F
Humidity
15%
Altimeter
29.94" Hg
Pressure
1013.92 hPa
Previous

3 hours ago

DTTR 201100Z 07012KT CAVOK 37/07 Q1015
Observed
Jul-20 @ 11:00 UTC
Wind
  • 070° at 12 KTS
Visibility
10,000+ meters
Flight Rules
VFR
Cloud Levels
  • Clear skies
Temperature
37°C / 99°F
Dewpoint
C / 45°F
Humidity
16%
Altimeter
29.97" Hg
Pressure
1014.92 hPa